Latest Weather Observations for Noonamah

IDD60801

Issued at 11:31 am CST Monday 27 February 2017 (issued every 30 minutes, with the page automatically refreshed every 10 minutes)

About weather observations | Map of weather stations | Latest weather observations for NT | Other Formats
Station Details ID: 014314 Name: NOONAMAH AIRSTRIP Lat: -12.61 Lon: 131.05 Height: 17.5 m
Data from the previous 72 hours. | See also: Recent months at Noonamah
Date/Time
CST
Temp
°C
App
Temp
°C
Dew
Point
°C
Rel
Hum
%
Delta-T
°C
Wind Press
QNH
hPa
Press
MSL
hPa
Rain since
9am
mm
Dir  Spd
km/h
Gust
km/h
Spd
kts
Gust
kts
27/11:30am 31.9 36.5 23.2 60 6.0 E 4 11 2 6 1008.6 1008.4 0.0
27/11:00am 31.4 35.9 23.0 61 5.8 ESE 4 9 2 5 1008.7 1008.5 0.0
27/10:30am 30.9 35.0 23.0 62 5.4 S 6 9 3 5 1009.1 1008.9 0.0
27/10:00am 29.8 34.7 23.7 70 4.2 SSW 4 7 2 4 1009.3 1009.1 0.0
27/09:30am 28.8 33.2 22.8 70 4.1 S 4 7 2 4 1009.4 1009.2 0.0
27/09:00am 28.1 33.0 23.7 77 3.0 SSW 4 9 2 5 1009.5 1009.3 19.0
27/08:30am 26.7 32.3 24.2 86 1.7 S 2 4 1 2 1009.4 1009.2 19.0
27/08:00am 25.8 31.6 24.0 90 1.2 CALM 0 2 0 1 1009.0 1008.8 19.0
27/07:30am 24.5 30.2 23.8 96 0.5 CALM 0 0 0 0 1008.7 1008.5 19.0
27/07:00am 24.0 29.6 23.5 97 0.3 CALM 0 0 0 0 1008.2 1008.0 19.0
27/06:30am 23.9 29.3 23.2 96 0.5 CALM 0 0 0 0 1007.9 1007.7 18.8
27/06:00am 24.2 29.8 23.5 96 0.5 CALM 0 0 0 0 1007.4 1007.2 18.8
27/05:30am 24.2 29.8 23.5 96 0.5 CALM 0 0 0 0 1007.2 1007.0 18.8
27/05:00am 24.2 29.8 23.5 96 0.5 CALM 0 0 0 0 1007.0 1006.8 18.8
27/04:30am 24.2 29.8 23.5 96 0.5 CALM 0 0 0 0 1007.0 1006.8 18.8
27/04:00am 24.2 29.0 23.5 96 0.5 S 4 6 2 3 1007.0 1006.8 18.8
27/03:30am 24.4 29.3 23.7 96 0.5 SSW 4 6 2 3 1007.4 1007.2 18.8
27/03:00am 24.6 29.6 23.9 96 0.5 S 4 6 2 3 1007.9 1007.7 18.8
27/02:30am 24.7 30.5 24.0 96 0.5 CALM 0 4 0 2 1008.2 1008.0 18.8
27/02:00am 24.7 29.9 24.2 97 0.3 SSW 4 6 2 3 1008.5 1008.3 18.8
27/01:30am 24.7 30.2 24.0 96 0.5 SW 2 6 1 3 1009.0 1008.8 18.6
27/01:00am 24.7 29.2 24.0 96 0.5 SW 7 11 4 6 1009.4 1009.2 18.2
27/12:30am 24.7 28.8 24.0 96 0.5 WSW 9 13 5 7 1009.9 1009.7 18.0
27/12:00am 24.7 29.7 23.8 95 0.6 N 4 6 2 3 1010.1 1009.9 18.0
 
Date/Time
CST
Temp
°C
App
Temp
°C
Dew
Point
°C
Rel
Hum
%
Delta-T
°C
Wind Press
QNH
hPa
Press
MSL
hPa
Rain since
9am
mm
Dir  Spd
km/h
Gust
km/h
Spd
kts
Gust
kts
26/11:30pm 25.0 30.6 24.3 96 0.5 NE 2 6 1 3 1010.1 1009.9 17.8
26/11:00pm 24.7 29.3 23.8 95 0.6 NNW 6 9 3 5 1009.6 1009.4 17.8
26/10:30pm 24.9 30.0 24.0 95 0.6 SE 4 7 2 4 1009.8 1009.6 17.8
26/10:00pm 25.0 30.5 24.0 94 0.7 NE 2 4 1 2 1008.9 1008.7 17.4
26/09:30pm 24.9 30.9 24.2 96 0.5 CALM 0 0 0 0 1008.8 1008.6 17.2
26/09:00pm 24.6 29.1 23.9 96 0.5 N 7 9 4 5 1008.6 1008.4 17.2
26/08:30pm 24.5 29.1 23.8 96 0.5 NW 6 11 3 6 1008.0 1007.8 17.2
26/08:00pm 24.4 28.7 23.7 96 0.5 NW 7 9 4 5 1007.8 1007.6 17.2
26/07:30pm 24.4 28.6 23.5 95 0.6 NNW 7 11 4 6 1007.3 1007.1 17.0
26/07:00pm 24.6 26.6 23.0 91 1.1 SSE 17 33 9 18 1006.6 1006.4 10.6
26/06:56pm 24.5 24.9 22.4 88 1.4 SSE 24 37 13 20 1006.6 1006.4 7.8
26/06:30pm 29.5 33.8 23.7 71 4.0 NW 7 17 4 9 1005.0 1004.8 0.0
26/06:00pm 31.0 35.5 24.6 68 4.5 NW 9 13 5 7 1004.7 1004.5 0.0
26/05:30pm 32.3 37.2 24.6 64 5.4 NNW 7 13 4 7 1004.3 1004.1 0.0
26/05:00pm 35.0 38.7 22.3 47 8.7 SSW 6 9 3 5 1004.4 1004.2 0.0
26/04:30pm 34.9 39.7 22.9 49 8.3 SSE 2 7 1 4 1004.5 1004.3 0.0
26/04:00pm 35.3 39.4 23.0 49 8.5 S 6 13 3 7 1004.7 1004.5 0.0
26/03:30pm 35.0 39.5 22.3 47 8.7 SSW 2 7 1 4 1004.9 1004.7 0.0
26/03:00pm 34.3 38.6 23.3 52 7.7 SSW 6 13 3 7 1005.2 1005.0 0.0
26/02:30pm 34.4 38.7 23.7 53 7.5 WNW 7 15 4 8 1005.4 1005.2 0.0
26/02:00pm 34.0 37.6 22.1 50 8.1 WSW 6 9 3 5 1005.7 1005.5 0.0
26/01:30pm 33.5 37.4 22.9 53 7.3 SW 7 15 4 8 1006.1 1005.9 0.0
26/01:00pm 33.2 37.1 22.6 53 7.3 WSW 6 11 3 6 1006.6 1006.4 0.0
26/12:30pm 33.6 37.5 23.0 54 7.3 S 7 15 4 8 1007.0 1006.8 0.0
26/12:00pm 32.5 36.6 22.9 57 6.6 SE 6 15 3 8 1007.5 1007.3 0.0
26/11:30am 32.0 35.5 22.1 55 6.7 S 7 13 4 7 1007.9 1007.7 0.0
26/11:00am 31.2 34.9 22.2 58 6.1 SSE 6 11 3 6 1008.3 1008.1 0.0
26/10:30am 31.1 34.9 22.7 61 5.8 S 7 15 4 8 1008.5 1008.3 0.0
26/10:00am 30.4 34.6 23.1 65 5.0 SSE 6 11 3 6 1008.6 1008.4 0.0
26/09:30am 29.3 33.4 22.3 66 4.8 SSE 4 7 2 4 1008.7 1008.5 0.0
26/09:00am 28.3 32.1 22.8 72 3.7 S 7 13 4 7 1008.6 1008.4 2.4
26/08:30am 27.6 31.2 23.0 76 3.1 S 9 17 5 9 1008.7 1008.5 2.4
26/08:00am 27.2 31.6 23.4 80 2.6 SSE 6 9 3 5 1008.4 1008.2 2.4
26/07:30am 26.0 31.2 24.2 90 1.2 SE 4 6 2 3 1008.4 1008.2 2.4
26/07:00am 25.0 30.1 24.1 95 0.6 SSE 4 6 2 3 1008.2 1008.0 2.4
26/06:30am 24.8 29.7 23.6 93 0.8 S 4 6 2 3 1007.8 1007.6 2.4
26/06:00am 25.0 30.8 24.0 94 0.7 CALM 0 0 0 0 1007.4 1007.2 2.4
26/05:30am 25.3 31.2 24.1 93 0.8 CALM 0 0 0 0 1007.5 1007.3 2.4
26/05:00am 25.5 31.5 24.3 93 0.8 CALM 0 0 0 0 1007.7 1007.5 2.4
26/04:30am 25.7 31.6 24.1 91 1.1 CALM 0 2 0 1 1007.7 1007.5 2.4
26/04:00am 25.8 30.9 24.6 93 0.8 SSE 6 7 3 4 1008.0 1007.8 2.4
26/03:30am 25.8 30.9 24.6 93 0.8 SE 6 7 3 4 1008.2 1008.0 2.4
26/03:00am 26.0 31.0 24.8 93 0.8 SSE 7 11 4 6 1008.4 1008.2 2.4
26/02:30am 25.9 31.2 25.0 95 0.6 SE 6 7 3 4 1008.8 1008.6 2.4
26/02:00am 25.9 32.0 25.0 95 0.6 SE 2 2 1 1 1008.7 1008.5 2.4
26/01:30am 25.9 32.0 25.0 95 0.6 SE 2 6 1 3 1008.8 1008.6 2.4
26/01:00am 26.0 32.1 25.0 94 0.7 WNW 2 4 1 2 1008.6 1008.4 2.4
26/12:30am 26.0 31.7 25.0 94 0.7 WSW 4 6 2 3 1008.8 1008.6 2.4
26/12:00am 25.8 31.1 24.9 95 0.6 W 6 6 3 3 1009.2 1009.0 2.4
 
Date/Time
CST
Temp
°C
App
Temp
°C
Dew
Point
°C
Rel
Hum
%
Delta-T
°C
Wind Press
QNH
hPa
Press
MSL
hPa
Rain since
9am
mm
Dir  Spd
km/h
Gust
km/h
Spd
kts
Gust
kts
25/11:30pm 25.7 32.0 24.8 95 0.6 CALM 0 0 0 0 1009.7 1009.5 2.4
25/11:00pm 25.9 32.3 24.9 94 0.7 CALM 0 0 0 0 1009.9 1009.7 2.4
25/10:30pm 26.0 32.3 24.8 93 0.8 CALM 0 0 0 0 1009.5 1009.3 2.4
25/10:00pm 26.4 33.0 25.2 93 0.8 CALM 0 0 0 0 1009.5 1009.3 2.4
25/09:30pm 26.5 33.0 25.1 92 1.0 CALM 0 0 0 0 1009.1 1008.9 2.4
25/09:00pm 26.8 33.1 24.8 89 1.4 CALM 0 0 0 0 1008.8 1008.6 2.4
25/08:30pm 27.2 32.8 24.8 87 1.7 WSW 4 6 2 3 1008.6 1008.4 2.4
25/08:00pm 27.7 34.1 25.5 88 1.5 WSW 2 2 1 1 1008.3 1008.1 2.4
25/07:30pm 28.4 35.0 25.2 83 2.3 CALM 0 0 0 0 1008.2 1008.0 2.4
25/07:00pm 29.1 34.4 24.4 76 3.3 WNW 4 6 2 3 1007.4 1007.2 2.4
25/06:30pm 29.7 35.0 24.3 73 3.8 WNW 4 7 2 4 1007.0 1006.8 2.4
25/06:00pm 30.1 34.8 24.3 71 4.0 WNW 7 9 4 5 1007.0 1006.8 2.4
25/05:30pm 30.8 36.0 24.2 68 4.6 WNW 4 6 2 3 1006.9 1006.7 2.4
25/05:00pm 30.7 35.1 23.4 65 5.0 SSE 6 9 3 5 1007.1 1006.9 2.4
25/04:30pm 30.7 35.5 24.1 68 4.6 NW 6 9 3 5 1007.2 1007.0 2.4
25/04:00pm 30.4 33.8 24.1 69 4.4 NW 13 20 7 11 1007.0 1006.8 2.4
25/03:30pm 31.0 35.4 24.4 68 4.6 NNW 9 17 5 9 1007.5 1007.3 2.4
25/03:00pm 31.1 36.0 25.2 71 4.2 NNW 9 15 5 8 1007.9 1007.7 2.4
25/02:30pm 32.8 37.7 23.7 58 6.3 WSW 4 7 2 4 1008.1 1007.9 2.4
25/02:00pm 30.6 37.1 25.0 72 3.9 CALM 0 6 0 3 1008.7 1008.5 2.4
25/01:30pm 28.7 35.2 25.1 81 2.5 CALM 0 4 0 2 1009.1 1008.9 2.4
25/01:00pm 27.8 32.2 23.8 79 2.8 E 7 13 4 7 1009.9 1009.7 2.2
25/12:30pm 29.4 34.1 24.3 74 3.6 S 7 13 4 7 1010.2 1010.0 2.2
25/12:00pm 27.9 33.0 24.9 84 2.1 SSE 7 13 4 7 1010.7 1010.5 2.2
25/11:30am 30.6 35.9 24.3 69 4.4 SW 4 7 2 4 1010.9 1010.7 0.2
25/11:00am 30.7 35.5 24.1 68 4.6 WSW 6 9 3 5 1011.2 1011.0 0.0
25/10:30am 31.3 36.2 23.1 61 5.6 WNW 2 6 1 3 1011.4 1011.2 0.0
25/10:00am 30.6 36.5 24.7 71 4.1 SSE 2 9 1 5 1011.5 1011.3 0.0
25/09:30am 29.5 35.6 25.0 77 3.2 WSW 2 6 1 3 1011.6 1011.4 0.0
25/09:00am 28.2 35.0 25.6 86 1.8 CALM 0 6 0 3 1011.6 1011.4 0.0
25/08:30am 27.6 34.2 25.2 87 1.7 CALM 0 0 0 0 1011.2 1011.0 0.0
25/08:00am 27.2 33.5 25.4 90 1.3 ESE 2 4 1 2 1010.9 1010.7 0.0
25/07:30am 26.1 32.7 25.2 95 0.6 CALM 0 0 0 0 1010.6 1010.4 0.0
25/07:00am 25.2 31.5 24.7 97 0.3 CALM 0 0 0 0 1010.3 1010.1 0.0
25/06:30am 25.0 31.0 24.3 96 0.5 CALM 0 0 0 0 1010.0 1009.8 0.0
25/06:00am 24.9 30.9 24.2 96 0.5 CALM 0 0 0 0 1009.7 1009.5 0.0
25/05:30am 24.8 30.6 23.9 95 0.6 CALM 0 0 0 0 1009.3 1009.1 0.0
25/05:00am 24.9 30.9 24.2 96 0.5 CALM 0 0 0 0 1009.2 1009.0 0.0
25/04:30am 24.9 30.9 24.2 96 0.5 CALM 0 0 0 0 1008.9 1008.7 0.0
25/04:00am 25.0 30.9 24.1 95 0.6 CALM 0 0 0 0 1008.8 1008.6 0.0
25/03:30am 25.1 30.2 24.6 97 0.3 SSE 6 7 3 4 1008.8 1008.6 0.0
25/03:00am 24.9 30.7 24.0 95 0.6 CALM 0 0 0 0 1008.8 1008.6 0.0
25/02:30am 25.4 31.7 24.7 96 0.5 CALM 0 0 0 0 1009.3 1009.1 0.0
25/02:00am 25.2 31.2 24.3 95 0.6 CALM 0 0 0 0 1009.6 1009.4 0.0
25/01:30am 25.4 31.5 24.5 95 0.6 CALM 0 0 0 0 1010.0 1009.8 0.0
25/01:00am 25.5 31.6 24.5 94 0.7 CALM 0 0 0 0 1010.2 1010.0 0.0
25/12:30am 25.7 32.0 24.8 95 0.6 CALM 0 0 0 0 1010.3 1010.1 0.0
25/12:00am 25.7 32.0 24.7 94 0.7 CALM 0 0 0 0 1010.6 1010.4 0.0
 
Date/Time
CST
Temp
°C
App
Temp
°C
Dew
Point
°C
Rel
Hum
%
Delta-T
°C
Wind Press
QNH
hPa
Press
MSL
hPa
Rain since
9am
mm
Dir  Spd
km/h
Gust
km/h
Spd
kts
Gust
kts
24/11:30pm 26.0 32.5 25.0 94 0.7 CALM 0 0 0 0 1010.8 1010.6 0.0
24/11:00pm 25.9 31.5 24.9 94 0.7 SE 4 6 2 3 1010.8 1010.6 0.0
24/10:30pm 26.0 32.0 24.8 93 0.8 NW 2 2 1 1 1010.2 1010.0 0.0
24/10:00pm 26.1 31.6 24.7 92 1.0 NW 4 4 2 2 1009.7 1009.5 0.0
24/09:30pm 26.5 32.4 24.7 90 1.3 NW 2 4 1 2 1009.6 1009.4 0.0
24/09:00pm 26.7 32.0 24.4 87 1.6 NNW 4 6 2 3 1009.4 1009.2 0.0
24/08:30pm 27.3 33.0 24.4 84 2.0 N 2 4 1 2 1009.5 1009.3 0.0
24/08:00pm 27.6 32.7 24.0 81 2.5 NW 4 4 2 2 1009.1 1008.9 0.0
24/07:30pm 28.4 33.1 24.0 77 3.0 NNW 6 9 3 5 1009.0 1008.8 0.0
24/07:00pm 29.3 33.6 23.7 72 3.9 NNW 7 13 4 7 1009.1 1008.9 0.0
24/06:30pm 30.7 36.0 25.3 73 3.8 NW 7 15 4 8 1008.6 1008.4 0.0
24/06:00pm 30.9 36.7 25.7 74 3.7 NW 6 9 3 5 1008.2 1008.0 0.0
24/05:30pm 30.3 35.9 25.4 75 3.5 NNW 6 9 3 5 1008.0 1007.8 0.0
24/05:00pm 29.8 34.9 24.0 71 4.0 NNW 4 6 2 3 1007.9 1007.7 0.0
24/04:30pm 29.7 33.5 21.6 61 5.5 NW 4 6 2 3 1008.0 1007.8 0.0
24/04:00pm 30.2 33.5 22.6 63 5.2 NNW 9 19 5 10 1007.9 1007.7 0.0
24/03:30pm 31.7 37.1 25.1 68 4.7 N 6 9 3 5 1007.7 1007.5 0.0
24/03:00pm 31.8 37.1 24.9 67 4.9 NNE 6 9 3 5 1008.0 1007.8 0.0
24/02:30pm 31.9 36.8 24.7 65 5.1 N 7 9 4 5 1008.4 1008.2 0.0
24/02:00pm 32.5 36.8 22.6 56 6.8 NW 4 7 2 4 1008.8 1008.6 0.0
24/01:30pm 32.5 36.5 22.0 54 7.2 WNW 4 9 2 5 1009.3 1009.1 0.0
24/01:00pm 32.1 36.1 23.1 59 6.2 WNW 7 9 4 5 1009.8 1009.6 0.0
24/12:30pm 31.7 36.1 23.8 63 5.5 W 7 13 4 7 1010.3 1010.1 0.0
24/12:00pm 31.8 35.8 23.1 60 6.0 WNW 7 13 4 7 1010.7 1010.5 0.0

Other Formats:

Comma delimited format used in spreadsheet applications
http://www.bom.gov.au/fwo/IDD60801/IDD60801.94105.axf

JavaScript Object Notation format (JSON) in row-major order
http://www.bom.gov.au/fwo/IDD60801/IDD60801.94105.json